createdAt,value
2023-04-03T00:01:11.475Z,77.81
2023-04-03T00:03:14.122Z,77.70
2023-04-03T00:05:16.901Z,77.60
2023-04-03T00:07:19.589Z,77.61
2023-04-03T00:09:22.267Z,77.71
2023-04-03T00:11:25.006Z,77.40
2023-04-03T00:13:27.696Z,77.67
2023-04-03T00:15:30.550Z,77.67
2023-04-03T00:17:33.268Z,77.54
2023-04-03T00:19:36.361Z,77.27
2023-04-03T00:21:39.729Z,77.33
2023-04-03T00:23:42.622Z,77.09
2023-04-03T00:25:45.721Z,77.29
2023-04-03T00:27:48.537Z,77.35
2023-04-03T00:29:51.230Z,77.13
2023-04-03T00:31:53.849Z,77.36
2023-04-03T00:33:56.725Z,76.87
2023-04-03T00:35:59.518Z,76.84
2023-04-03T00:38:02.330Z,76.56
2023-04-03T00:40:06.429Z,76.53
2023-04-03T00:42:08.958Z,76.28
2023-04-03T00:44:29.952Z,76.48
2023-04-03T00:46:32.544Z,76.41
2023-04-03T00:48:38.121Z,76.64
2023-04-03T00:50:42.758Z,76.49
2023-04-03T00:52:47.796Z,76.53
2023-04-03T00:54:53.434Z,76.35
2023-04-03T00:56:58.627Z,76.16
2023-04-03T00:59:31.475Z,76.51
2023-04-03T01:01:34.281Z,76.68
2023-04-03T01:03:37.484Z,76.68
2023-04-03T01:05:42.059Z,76.79
2023-04-03T01:07:46.228Z,77.17
2023-04-03T01:09:51.793Z,76.73
2023-04-03T01:11:54.498Z,77.00
2023-04-03T01:13:57.299Z,77.05
2023-04-03T01:16:05.082Z,77.18
2023-04-03T01:18:11.556Z,77.25
2023-04-03T01:20:32.501Z,76.95
2023-04-03T01:22:55.683Z,76.82
2023-04-03T01:24:58.276Z,77.17
2023-04-03T01:27:04.001Z,77.11
2023-04-03T01:29:06.784Z,76.88
2023-04-03T01:31:24.492Z,77.06
2023-04-03T01:33:27.601Z,77.31
2023-04-03T01:35:30.230Z,77.63
2023-04-03T01:37:32.895Z,77.66
2023-04-03T01:39:35.768Z,77.48
2023-04-03T01:41:38.573Z,78.04
2023-04-03T01:43:41.264Z,78.03
2023-04-03T01:45:44.292Z,78.34
2023-04-03T01:47:47.091Z,78.44
2023-04-03T01:49:49.675Z,78.47
2023-04-03T01:51:52.315Z,78.89
2023-04-03T01:53:55.045Z,79.01
2023-04-03T01:55:57.701Z,79.20
2023-04-03T01:58:00.498Z,79.07
2023-04-03T02:00:03.374Z,79.44
2023-04-03T02:02:07.074Z,79.61
2023-04-03T02:04:09.913Z,79.89
2023-04-03T02:06:12.991Z,79.48
2023-04-03T02:08:15.925Z,79.63
2023-04-03T02:10:18.654Z,79.84
2023-04-03T02:12:21.323Z,79.92
2023-04-03T02:14:24.847Z,79.97
2023-04-03T02:16:47.328Z,80.17
2023-04-03T02:18:49.996Z,80.26
2023-04-03T02:20:52.645Z,79.95
2023-04-03T02:22:55.232Z,80.04
2023-04-03T02:24:58.020Z,80.57
2023-04-03T02:27:00.860Z,80.20
2023-04-03T02:29:03.957Z,80.54
2023-04-03T02:31:09.416Z,80.86
2023-04-03T02:33:12.225Z,80.79
2023-04-03T02:35:15.001Z,80.95
2023-04-03T02:37:17.796Z,80.69
2023-04-03T02:39:20.486Z,80.73
2023-04-03T02:41:23.250Z,81.21
2023-04-03T02:43:25.971Z,81.29
2023-04-03T02:45:28.554Z,81.21
2023-04-03T02:47:31.253Z,81.04
2023-04-03T02:49:33.906Z,80.99
2023-04-03T02:51:36.686Z,80.72
2023-04-03T02:53:39.323Z,80.55
2023-04-03T02:55:42.028Z,80.97
2023-04-03T02:57:44.745Z,80.52
2023-04-03T02:59:47.402Z,80.60
2023-04-03T03:01:50.140Z,80.61
2023-04-03T03:03:52.765Z,80.88
2023-04-03T03:06:06.580Z,80.52
2023-04-03T03:08:09.267Z,80.01
2023-04-03T03:10:11.966Z,80.07
2023-04-03T03:12:15.865Z,80.03
2023-04-03T03:14:18.623Z,79.53
2023-04-03T03:16:21.486Z,79.53
2023-04-03T03:18:24.554Z,79.42
2023-04-03T03:20:27.201Z,79.58
2023-04-03T03:22:31.811Z,79.43
2023-04-03T03:24:35.203Z,79.00
2023-04-03T03:26:38.596Z,78.73
2023-04-03T03:28:42.005Z,78.75
2023-04-03T03:30:45.176Z,78.35
2023-04-03T03:32:50.488Z,78.20
2023-04-03T03:34:53.301Z,77.96
2023-04-03T03:36:56.551Z,77.45
2023-04-03T03:38:59.125Z,77.13
2023-04-03T03:41:01.715Z,76.53
2023-04-03T03:43:04.802Z,76.01
2023-04-03T03:45:08.234Z,75.86
2023-04-03T03:47:11.949Z,75.59
2023-04-03T03:49:14.591Z,75.42
2023-04-03T03:51:17.853Z,75.24
2023-04-03T03:53:20.817Z,74.70
2023-04-03T03:55:23.585Z,74.40
2023-04-03T03:57:28.213Z,74.05
2023-04-03T03:59:31.171Z,74.02
2023-04-03T04:01:34.321Z,73.92
2023-04-03T04:03:37.163Z,73.95
2023-04-03T04:05:40.349Z,72.93
2023-04-03T04:07:43.205Z,72.97
2023-04-03T04:09:46.147Z,72.44
2023-04-03T04:11:48.873Z,71.53
2023-04-03T04:13:51.485Z,70.90
2023-04-03T04:15:54.162Z,71.00
2023-04-03T04:17:56.936Z,70.42
2023-04-03T04:19:59.668Z,70.50
2023-04-03T04:22:02.228Z,69.93
2023-04-03T04:24:05.114Z,69.58
2023-04-03T04:26:07.687Z,69.18
2023-04-03T04:28:10.516Z,68.73
2023-04-03T04:30:14.187Z,67.89
2023-04-03T04:32:16.847Z,67.45
2023-04-03T04:34:19.588Z,67.16
2023-04-03T04:36:22.563Z,67.31
2023-04-03T04:38:26.481Z,67.01
2023-04-03T04:40:29.250Z,66.81
2023-04-03T04:42:31.952Z,65.99
2023-04-03T04:44:34.713Z,65.56
2023-04-03T04:46:37.389Z,65.57
2023-04-03T04:48:40.123Z,65.21
2023-04-03T04:50:42.718Z,64.69
2023-04-03T04:52:45.359Z,64.53
2023-04-03T04:54:48.006Z,64.49
2023-04-03T04:56:50.674Z,64.13
2023-04-03T04:58:53.253Z,64.12
2023-04-03T05:01:03.484Z,63.44
2023-04-03T05:03:06.537Z,63.78
2023-04-03T05:05:10.157Z,63.95
2023-04-03T05:07:13.062Z,64.03
2023-04-03T05:09:15.974Z,63.81
2023-04-03T05:11:18.685Z,63.26
2023-04-03T05:13:21.942Z,62.59
2023-04-03T05:15:24.976Z,62.26
2023-04-03T05:17:27.618Z,61.85
2023-04-03T05:19:30.512Z,61.67
2023-04-03T05:21:33.726Z,61.41
2023-04-03T05:23:36.455Z,61.49
2023-04-03T05:25:40.102Z,61.45
2023-04-03T05:27:42.800Z,61.11
2023-04-03T05:29:45.619Z,60.83
2023-04-03T05:31:50.917Z,61.03
2023-04-03T05:33:53.617Z,61.11
2023-04-03T05:35:56.454Z,60.64
2023-04-03T05:37:59.321Z,59.77
2023-04-03T05:40:02.407Z,59.56
2023-04-03T05:42:06.241Z,59.20
2023-04-03T05:44:08.947Z,58.13
2023-04-03T05:46:17.717Z,58.52
2023-04-03T05:48:20.557Z,58.46
2023-04-03T05:50:23.522Z,58.14
2023-04-03T05:52:36.459Z,57.93
2023-04-03T05:54:39.233Z,57.48
2023-04-03T05:56:42.122Z,57.26
2023-04-03T05:58:46.297Z,57.34
2023-04-03T06:00:49.658Z,56.19
2023-04-03T06:02:52.428Z,56.37
2023-04-03T06:04:55.220Z,56.87
2023-04-03T06:06:59.157Z,55.62
2023-04-03T06:09:03.731Z,55.32
2023-04-03T06:11:06.956Z,54.96
2023-04-03T06:13:09.544Z,55.25
2023-04-03T06:15:12.946Z,54.23
2023-04-03T06:17:17.297Z,53.93
2023-04-03T06:19:20.066Z,53.85
2023-04-03T06:21:22.820Z,54.41
2023-04-03T06:23:25.728Z,53.88
2023-04-03T06:25:28.773Z,54.04
2023-04-03T06:27:31.500Z,53.42
2023-04-03T06:29:34.437Z,52.85
2023-04-03T06:31:40.904Z,52.83
2023-04-03T06:33:43.678Z,52.96
2023-04-03T06:35:46.886Z,53.78
2023-04-03T06:37:49.803Z,53.35
2023-04-03T06:39:52.468Z,52.79
2023-04-03T06:41:55.039Z,52.14
2023-04-03T06:43:59.149Z,51.87
2023-04-03T06:46:02.264Z,51.97
2023-04-03T06:48:05.253Z,51.75
2023-04-03T06:50:08.476Z,51.48
2023-04-03T06:52:13.269Z,51.79
2023-04-03T06:54:16.195Z,50.76
2023-04-03T06:56:19.213Z,51.50
2023-04-03T06:58:23.370Z,51.78
2023-04-03T07:00:27.223Z,50.82
2023-04-03T07:02:29.855Z,50.00
2023-04-03T07:04:32.758Z,50.73
2023-04-03T07:06:36.143Z,50.13
2023-04-03T07:08:39.327Z,50.53
2023-04-03T07:10:42.185Z,50.10
2023-04-03T07:12:45.099Z,49.10
2023-04-03T07:14:48.165Z,48.62
2023-04-03T07:16:50.867Z,48.88
2023-04-03T07:18:53.736Z,49.53
2023-04-03T07:20:56.970Z,48.63
2023-04-03T07:23:00.434Z,49.38
2023-04-03T07:25:04.691Z,48.29
2023-04-03T07:27:09.542Z,48.66
2023-04-03T07:29:12.385Z,47.75
2023-04-03T07:31:15.976Z,47.40
2023-04-03T07:33:20.927Z,47.00
2023-04-03T07:35:23.706Z,47.06
2023-04-03T07:37:26.388Z,47.44
2023-04-03T07:39:29.283Z,46.39
2023-04-03T07:41:32.286Z,46.64
2023-04-03T07:43:35.592Z,46.96
2023-04-03T07:45:38.451Z,47.00
2023-04-03T07:47:41.780Z,47.36
2023-04-03T07:49:44.995Z,47.37
2023-04-03T07:51:47.896Z,46.76
2023-04-03T07:53:50.509Z,46.02
2023-04-03T07:55:56.615Z,45.08
2023-04-03T07:57:59.339Z,45.45
2023-04-03T08:00:02.637Z,45.44
2023-04-03T08:02:07.036Z,45.37
2023-04-03T08:04:09.772Z,45.22
2023-04-03T08:06:16.207Z,44.78
2023-04-03T08:08:24.570Z,45.21
2023-04-03T08:10:27.431Z,44.96
2023-04-03T08:12:31.015Z,44.64
2023-04-03T08:14:35.866Z,44.18
2023-04-03T08:16:38.555Z,43.95
2023-04-03T08:18:41.276Z,43.75
2023-04-03T08:20:44.691Z,43.21
2023-04-03T08:22:47.569Z,42.63
2023-04-03T08:24:58.710Z,43.04
2023-04-03T08:27:02.393Z,43.47
2023-04-03T08:29:05.157Z,44.21
2023-04-03T08:31:12.216Z,43.44
2023-04-03T08:33:14.926Z,42.13
2023-04-03T08:35:17.771Z,41.80
2023-04-03T08:37:20.953Z,41.27
2023-04-03T08:39:23.606Z,41.54
2023-04-03T08:41:41.052Z,40.96
2023-04-03T08:44:26.254Z,41.05
2023-04-03T08:46:57.459Z,40.34
2023-04-03T08:49:01.308Z,41.03
2023-04-03T08:51:13.118Z,40.59
2023-04-03T08:53:16.798Z,40.23
2023-04-03T08:55:56.646Z,39.78
2023-04-03T08:58:06.337Z,39.74
2023-04-03T09:00:23.647Z,39.86
2023-04-03T09:02:50.836Z,39.13
2023-04-03T09:04:54.534Z,38.85
2023-04-03T09:07:04.940Z,38.91
2023-04-03T09:09:29.264Z,38.37
2023-04-03T09:11:40.669Z,38.50
2023-04-03T09:14:02.312Z,38.58
2023-04-03T09:16:21.360Z,38.62
2023-04-03T09:18:34.072Z,38.36
2023-04-03T09:21:02.823Z,37.59
2023-04-03T09:23:37.782Z,36.12
2023-04-03T09:25:40.861Z,35.72
2023-04-03T09:27:43.770Z,35.02
2023-04-03T09:29:47.329Z,35.19
2023-04-03T09:31:54.367Z,35.31
2023-04-03T09:34:03.510Z,35.49
2023-04-03T09:36:07.111Z,34.28
2023-04-03T09:38:12.894Z,33.99
2023-04-03T09:40:27.562Z,33.78
2023-04-03T09:42:32.344Z,33.97
2023-04-03T09:44:38.062Z,34.31
2023-04-03T09:46:41.005Z,34.37
2023-04-03T09:51:17.088Z,31.66
2023-04-03T09:53:49.169Z,30.02
2023-04-03T09:55:51.911Z,29.77
2023-04-03T09:58:01.231Z,30.76
2023-04-03T10:00:06.856Z,31.22
2023-04-03T10:02:37.608Z,29.70
2023-04-03T10:04:42.992Z,31.13
2023-04-03T10:06:54.490Z,30.17
2023-04-03T10:09:02.230Z,30.81
2023-04-03T10:11:15.816Z,29.83
2023-04-03T10:13:22.517Z,29.76
2023-04-03T10:15:29.757Z,28.92
2023-04-03T10:17:56.718Z,28.29
2023-04-03T10:20:04.833Z,28.34
2023-04-03T10:22:21.892Z,28.62
2023-04-03T10:24:24.602Z,29.90
2023-04-03T10:26:39.108Z,29.65
2023-04-03T10:28:57.992Z,28.89
2023-04-03T10:31:03.642Z,28.81
2023-04-03T10:33:27.780Z,28.14
2023-04-03T10:35:41.027Z,26.45
2023-04-03T10:37:59.417Z,27.65
2023-04-03T10:40:32.417Z,27.05
2023-04-03T10:42:48.641Z,26.65
2023-04-03T10:45:06.643Z,28.50
2023-04-03T10:47:46.173Z,26.75
2023-04-03T10:50:16.800Z,28.58
2023-04-03T10:52:41.534Z,27.77
2023-04-03T10:55:08.764Z,25.20
2023-04-03T10:57:13.953Z,26.71
2023-04-03T10:59:17.533Z,28.10
2023-04-03T11:01:25.455Z,27.22
2023-04-03T11:03:37.103Z,26.37
2023-04-03T11:05:45.348Z,26.50
2023-04-03T11:07:53.058Z,25.87
2023-04-03T11:10:04.762Z,26.72
2023-04-03T11:12:42.303Z,25.04
2023-04-03T11:14:46.114Z,24.79
2023-04-03T11:16:54.949Z,26.92
2023-04-03T11:19:15.963Z,26.36
2023-04-03T11:21:46.990Z,26.35
2023-04-03T11:23:51.343Z,25.81
2023-04-03T11:25:57.968Z,27.31
2023-04-03T11:28:03.632Z,25.20
2023-04-03T11:30:11.588Z,27.08
2023-04-03T11:32:46.207Z,26.61
2023-04-03T11:34:51.914Z,24.73
2023-04-03T11:37:03.180Z,25.52
2023-04-03T11:39:22.510Z,26.77
2023-04-03T11:41:34.086Z,23.98
2023-04-03T11:43:42.104Z,24.21
2023-04-03T11:45:54.905Z,25.18
2023-04-03T11:48:04.852Z,26.39
2023-04-03T11:50:43.692Z,23.44
2023-04-03T11:52:47.899Z,24.66
2023-04-03T11:54:50.872Z,24.69
2023-04-03T11:56:53.593Z,26.38
2023-04-03T11:59:14.818Z,24.46
2023-04-03T12:01:51.793Z,23.91
2023-04-03T12:03:59.655Z,24.34
2023-04-03T12:06:08.390Z,22.18
2023-04-03T12:08:25.816Z,22.71
2023-04-03T12:10:32.296Z,22.01
2023-04-03T12:12:37.298Z,22.38
2023-04-03T12:14:40.110Z,24.29
2023-04-03T12:16:42.745Z,23.52
2023-04-03T12:19:01.741Z,22.24
2023-04-03T12:21:06.116Z,21.40
2023-04-03T12:23:30.346Z,20.89
2023-04-03T12:25:51.220Z,19.94
2023-04-03T12:27:54.436Z,20.44
2023-04-03T12:30:05.878Z,20.72
2023-04-03T12:32:14.208Z,21.40
2023-04-03T12:34:33.013Z,23.73
2023-04-03T12:36:42.183Z,22.29
2023-04-03T12:39:04.693Z,20.49
2023-04-03T12:41:19.130Z,22.47
2023-04-03T12:43:43.356Z,20.76
2023-04-03T12:46:03.228Z,21.68
2023-04-03T12:48:13.598Z,21.84
2023-04-03T12:50:35.119Z,19.39
2023-04-03T12:52:42.816Z,19.78
2023-04-03T12:54:47.971Z,20.85
2023-04-03T12:56:51.716Z,21.11
2023-04-03T12:58:56.781Z,22.96
2023-04-03T13:01:13.354Z,19.66
2023-04-03T13:03:25.582Z,19.81
2023-04-03T13:05:29.567Z,20.05
2023-04-03T13:07:39.197Z,20.35
2023-04-03T13:09:42.100Z,22.25
2023-04-03T13:11:46.942Z,21.04
2023-04-03T13:14:00.981Z,19.90
2023-04-03T13:16:11.633Z,20.26
2023-04-03T13:18:27.218Z,20.20
2023-04-03T13:20:33.362Z,20.43
2023-04-03T13:22:45.850Z,19.55
2023-04-03T13:24:52.135Z,19.81
2023-04-03T13:26:55.030Z,22.89
2023-04-03T13:29:05.831Z,20.19
2023-04-03T13:31:15.482Z,22.93
2023-04-03T13:33:26.211Z,21.88
2023-04-03T13:35:34.027Z,20.74
2023-04-03T13:37:36.771Z,21.24
2023-04-03T13:39:40.448Z,24.31
2023-04-03T13:42:22.892Z,21.93
2023-04-03T13:44:34.355Z,22.74
2023-04-03T13:46:36.802Z,21.76
2023-04-03T13:48:46.623Z,20.49
2023-04-03T13:51:02.877Z,21.92
2023-04-03T13:53:15.681Z,19.30
2023-04-03T13:55:48.398Z,20.80
2023-04-03T13:58:04.254Z,20.37
2023-04-03T14:00:34.747Z,22.31
2023-04-03T14:02:40.709Z,21.20
2023-04-03T14:04:46.089Z,21.99
2023-04-03T14:06:49.369Z,20.55
2023-04-03T14:08:53.104Z,20.54
2023-04-03T14:10:56.282Z,19.84
2023-04-03T14:12:58.965Z,20.24
2023-04-03T14:15:03.082Z,20.94
2023-04-03T14:17:24.531Z,25.62
2023-04-03T14:19:33.218Z,21.50
2023-04-03T14:21:35.829Z,21.54
2023-04-03T14:23:38.976Z,24.06
2023-04-03T14:25:42.889Z,24.03
2023-04-03T14:27:50.820Z,21.12
2023-04-03T14:29:54.816Z,21.12
2023-04-03T14:32:11.554Z,20.95
2023-04-03T14:34:17.366Z,22.18
2023-04-03T14:36:24.520Z,22.45
2023-04-03T14:38:30.328Z,23.53
2023-04-03T14:40:32.982Z,21.94
2023-04-03T14:42:38.035Z,22.90
2023-04-03T14:44:40.716Z,22.61
2023-04-03T14:46:56.039Z,24.50
2023-04-03T14:49:00.074Z,23.71
2023-04-03T14:51:06.061Z,24.17
2023-04-03T14:53:09.249Z,26.71
2023-04-03T14:55:15.730Z,24.90
2023-04-03T14:57:19.029Z,26.95
2023-04-03T14:59:22.778Z,27.53
2023-04-03T15:01:27.038Z,25.91
2023-04-03T15:03:30.100Z,27.26
2023-04-03T15:05:32.834Z,27.85
2023-04-03T15:07:41.853Z,29.99
2023-04-03T15:09:44.712Z,30.07
2023-04-03T15:11:48.132Z,28.98
2023-04-03T15:13:50.922Z,30.85
2023-04-03T15:15:54.220Z,32.66
2023-04-03T15:18:01.254Z,31.09
2023-04-03T15:20:06.896Z,32.06
2023-04-03T15:22:16.316Z,31.82
2023-04-03T15:24:18.977Z,32.13
2023-04-03T15:26:21.937Z,31.03
2023-04-03T15:28:38.806Z,27.96
2023-04-03T15:30:41.744Z,31.98
2023-04-03T15:32:44.595Z,32.11
2023-04-03T15:34:47.254Z,32.76
2023-04-03T15:36:54.062Z,32.40
2023-04-03T15:38:56.936Z,32.08
2023-04-03T15:40:59.629Z,34.24
2023-04-03T15:43:02.483Z,32.89
2023-04-03T15:45:05.609Z,33.25
2023-04-03T15:47:08.468Z,32.23
2023-04-03T15:49:11.190Z,33.71
2023-04-03T15:51:13.814Z,33.72
2023-04-03T15:53:16.585Z,33.72
2023-04-03T15:55:19.369Z,35.48
2023-04-03T15:57:27.225Z,33.72
2023-04-03T15:59:31.928Z,34.89
2023-04-03T16:01:35.202Z,35.93
2023-04-03T16:03:40.117Z,35.77
2023-04-03T16:05:43.120Z,34.77
2023-04-03T16:07:47.058Z,34.62
2023-04-03T16:09:49.783Z,34.58
2023-04-03T16:11:52.684Z,35.01
2023-04-03T16:13:56.343Z,34.24
2023-04-03T16:15:59.047Z,33.08
2023-04-03T16:18:02.482Z,32.32
2023-04-03T16:20:06.694Z,32.91
2023-04-03T16:22:09.300Z,33.88
2023-04-03T16:24:12.099Z,33.76
2023-04-03T16:26:15.456Z,34.33
2023-04-03T16:28:19.349Z,35.87
2023-04-03T16:30:22.287Z,35.06
2023-04-03T16:32:27.975Z,33.32
2023-04-03T16:34:33.366Z,36.34
2023-04-03T16:36:36.192Z,34.42
2023-04-03T16:38:38.896Z,35.79
2023-04-03T16:40:41.653Z,35.83
2023-04-03T16:42:44.390Z,33.67
2023-04-03T16:44:47.081Z,36.48
2023-04-03T16:46:49.889Z,35.59
2023-04-03T16:48:52.706Z,35.27
2023-04-03T16:50:55.476Z,35.20
2023-04-03T16:52:58.319Z,34.38
2023-04-03T16:55:00.988Z,36.60
2023-04-03T16:57:04.165Z,34.52
2023-04-03T16:59:07.388Z,35.35
2023-04-03T17:01:14.666Z,35.13
2023-04-03T17:03:17.519Z,35.63
2023-04-03T17:05:20.234Z,34.61
2023-04-03T17:07:24.680Z,35.65
2023-04-03T17:09:27.489Z,36.45
2023-04-03T17:11:31.440Z,36.31
2023-04-03T17:13:34.950Z,36.24
2023-04-03T17:15:37.955Z,36.55
2023-04-03T17:17:41.366Z,36.61
2023-04-03T17:19:44.865Z,38.22
2023-04-03T17:21:47.758Z,37.68
2023-04-03T17:23:55.166Z,37.46
2023-04-03T17:25:58.016Z,39.09
2023-04-03T17:28:01.161Z,37.44
2023-04-03T17:30:06.804Z,38.16
2023-04-03T17:32:09.663Z,37.29
2023-04-03T17:34:12.964Z,37.93
2023-04-03T17:36:16.133Z,38.79
2023-04-03T17:38:19.005Z,38.53
2023-04-03T17:40:21.718Z,37.67
2023-04-03T17:42:25.164Z,37.42
2023-04-03T17:44:28.000Z,38.29
2023-04-03T17:46:31.447Z,38.26
2023-04-03T17:48:37.719Z,38.08
2023-04-03T17:50:40.436Z,39.49
2023-04-03T17:52:43.501Z,39.05
2023-04-03T17:54:46.738Z,38.10
2023-04-03T17:56:49.514Z,38.54
2023-04-03T17:58:52.454Z,37.04
2023-04-03T18:00:56.472Z,37.75
2023-04-03T18:02:59.457Z,36.93
2023-04-03T18:05:02.237Z,36.67
2023-04-03T18:07:09.894Z,36.89
2023-04-03T18:09:15.971Z,36.25
2023-04-03T18:11:22.028Z,36.95
2023-04-03T18:13:24.742Z,36.34
2023-04-03T18:15:27.642Z,37.68
2023-04-03T18:17:30.682Z,37.52
2023-04-03T18:19:34.307Z,37.13
2023-04-03T18:21:37.516Z,37.19
2023-04-03T18:23:43.462Z,37.27
2023-04-03T18:25:46.476Z,37.47
2023-04-03T18:27:49.835Z,38.57
2023-04-03T18:30:02.976Z,39.46
2023-04-03T18:32:08.198Z,39.38
2023-04-03T18:34:12.945Z,38.60
2023-04-03T18:38:19.273Z,39.19
2023-04-03T18:40:22.838Z,39.37
2023-04-03T18:42:27.226Z,39.55
2023-04-03T18:44:32.481Z,39.36
2023-04-03T18:48:41.984Z,39.14
2023-04-03T18:50:45.694Z,40.86
2023-04-03T18:52:50.844Z,40.36
2023-04-03T18:54:53.659Z,39.48
2023-04-03T18:56:56.322Z,41.52
2023-04-03T18:58:59.331Z,40.26
2023-04-03T19:01:02.301Z,40.87
2023-04-03T19:03:06.180Z,41.07
2023-04-03T19:05:13.368Z,39.59
2023-04-03T19:07:16.388Z,40.26
2023-04-03T19:09:19.959Z,39.75
2023-04-03T19:11:23.306Z,39.64
2023-04-03T19:13:28.253Z,38.39
2023-04-03T19:15:32.201Z,39.45
2023-04-03T19:17:34.931Z,38.92
2023-04-03T19:19:38.305Z,38.42
2023-04-03T19:21:42.264Z,38.46
2023-04-03T19:23:45.205Z,38.42
2023-04-03T19:25:48.507Z,39.29
2023-04-03T19:27:51.729Z,38.58
2023-04-03T19:29:54.592Z,38.87
2023-04-03T19:31:57.816Z,39.22
2023-04-03T19:34:01.273Z,39.80
2023-04-03T19:36:08.139Z,39.25
2023-04-03T19:38:10.840Z,38.68
2023-04-03T19:40:14.567Z,39.07
2023-04-03T19:42:19.063Z,37.83
2023-04-03T19:44:21.696Z,38.38
2023-04-03T19:46:28.141Z,38.85
2023-04-03T19:48:32.922Z,38.86
2023-04-03T19:50:36.107Z,38.89
2023-04-03T19:52:39.180Z,38.67
2023-04-03T19:54:42.123Z,39.23
2023-04-03T19:56:45.796Z,38.62
2023-04-03T19:58:54.457Z,38.78
2023-04-03T20:00:58.714Z,38.03
2023-04-03T20:03:01.911Z,38.29
2023-04-03T20:05:05.443Z,37.97
2023-04-03T20:07:08.128Z,38.04
2023-04-03T20:09:11.360Z,37.81
2023-04-03T20:11:14.412Z,37.65
2023-04-03T20:13:17.206Z,38.11
2023-04-03T20:15:20.137Z,38.07
2023-04-03T20:17:22.881Z,38.32
2023-04-03T20:19:27.102Z,37.95
2023-04-03T20:21:34.343Z,38.81
2023-04-03T20:23:37.618Z,38.95
2023-04-03T20:25:54.082Z,38.04
2023-04-03T20:28:00.624Z,38.90
2023-04-03T20:30:04.885Z,38.70
2023-04-03T20:32:07.603Z,38.18
2023-04-03T20:34:10.361Z,38.27
2023-04-03T20:36:13.012Z,38.19
2023-04-03T20:38:16.658Z,38.15
2023-04-03T20:40:19.306Z,37.71
2023-04-03T20:42:22.151Z,38.04
2023-04-03T20:44:25.100Z,38.46
2023-04-03T20:46:42.290Z,37.78
2023-04-03T20:48:52.926Z,37.78
2023-04-03T20:50:56.054Z,38.10
2023-04-03T20:52:59.092Z,38.08
2023-04-03T20:55:01.720Z,37.89
2023-04-03T20:57:06.135Z,37.93
2023-04-03T20:59:10.427Z,38.13
2023-04-03T21:01:16.282Z,38.25
2023-04-03T21:03:19.587Z,38.07
2023-04-03T21:05:23.673Z,38.11
2023-04-03T21:08:04.566Z,38.39
2023-04-03T21:10:44.631Z,37.96
2023-04-03T21:13:24.580Z,38.03
2023-04-03T21:15:55.460Z,38.35
2023-04-03T21:18:21.360Z,38.33
2023-04-03T21:20:24.004Z,38.51
2023-04-03T21:22:27.260Z,38.66
2023-04-03T21:24:31.564Z,38.87
2023-04-03T21:26:34.637Z,38.85
2023-04-03T21:28:37.367Z,38.84
2023-04-03T21:30:40.269Z,38.61
2023-04-03T21:32:43.325Z,38.73
2023-04-03T21:34:46.593Z,39.42
2023-04-03T21:36:52.915Z,39.22
2023-04-03T21:38:58.215Z,39.15
2023-04-03T21:41:01.096Z,39.48
2023-04-03T21:43:05.310Z,39.17
2023-04-03T21:45:08.426Z,39.12
2023-04-03T21:47:11.744Z,39.19
2023-04-03T21:49:14.666Z,39.04
2023-04-03T21:51:20.129Z,39.27
2023-04-03T21:53:23.752Z,39.32
2023-04-03T21:55:27.162Z,39.26
2023-04-03T21:57:29.863Z,39.73
2023-04-03T21:59:32.719Z,39.91
2023-04-03T22:01:36.311Z,39.42
2023-04-03T22:03:39.443Z,39.64
2023-04-03T22:05:42.107Z,39.51
2023-04-03T22:07:47.978Z,39.66
2023-04-03T22:09:50.949Z,39.80
2023-04-03T22:11:53.589Z,39.67
2023-04-03T22:13:56.423Z,40.27
2023-04-03T22:15:59.709Z,40.36
2023-04-03T22:18:02.480Z,40.09
2023-04-03T22:20:05.777Z,39.66
2023-04-03T22:22:09.025Z,40.05
2023-04-03T22:24:11.716Z,40.19
2023-04-03T22:26:14.613Z,40.31
2023-04-03T22:28:17.420Z,40.26
2023-04-03T22:30:20.106Z,40.21
2023-04-03T22:32:22.877Z,40.31
2023-04-03T22:34:25.650Z,40.91
2023-04-03T22:36:28.387Z,40.82
2023-04-03T22:38:31.359Z,40.86
2023-04-03T22:40:34.006Z,41.15
2023-04-03T22:42:36.582Z,41.21
2023-04-03T22:44:39.790Z,41.34
2023-04-03T22:46:42.506Z,41.44
2023-04-03T22:48:48.587Z,41.47
2023-04-03T22:50:51.820Z,41.99
2023-04-03T22:52:54.483Z,42.08
2023-04-03T22:55:01.378Z,42.52
2023-04-03T22:57:10.105Z,42.97
2023-04-03T22:59:13.291Z,42.66
2023-04-03T23:01:16.422Z,43.04
2023-04-03T23:03:19.737Z,43.47
2023-04-03T23:05:22.385Z,43.19
2023-04-03T23:07:24.976Z,43.38
2023-04-03T23:09:27.579Z,43.46
2023-04-03T23:11:30.353Z,43.75
2023-04-03T23:13:33.100Z,44.28
2023-04-03T23:15:35.971Z,44.36
2023-04-03T23:17:39.553Z,44.35
2023-04-03T23:19:42.698Z,44.52
2023-04-03T23:21:45.988Z,44.28
2023-04-03T23:23:48.596Z,44.71
2023-04-03T23:25:59.672Z,45.07
2023-04-03T23:28:02.473Z,45.15
2023-04-03T23:30:07.648Z,45.11
2023-04-03T23:32:10.937Z,45.06
2023-04-03T23:34:13.824Z,45.36
2023-04-03T23:36:17.074Z,45.72
2023-04-03T23:38:19.662Z,45.79
2023-04-03T23:40:22.318Z,45.77
2023-04-03T23:42:24.934Z,45.80
2023-04-03T23:44:27.631Z,45.82
2023-04-03T23:46:30.378Z,45.96
2023-04-03T23:48:33.095Z,46.07
2023-04-03T23:50:35.804Z,45.87
2023-04-03T23:52:38.488Z,46.27
2023-04-03T23:54:41.101Z,46.44
2023-04-03T23:56:43.670Z,46.41
2023-04-03T23:58:46.516Z,46.74
